sensor_id;sensor_type;location;lat;lon;timestamp;temperature;humidity
51215;DHT22;63849;47.546;19.254;2024-01-11T00:01:59;-3.10;71.80
51215;DHT22;63849;47.546;19.254;2024-01-11T00:04:25;-3.10;71.70
51215;DHT22;63849;47.546;19.254;2024-01-11T00:06:51;-3.00;71.70
51215;DHT22;63849;47.546;19.254;2024-01-11T00:09:17;-3.10;71.80
51215;DHT22;63849;47.546;19.254;2024-01-11T00:11:42;-3.10;71.90
51215;DHT22;63849;47.546;19.254;2024-01-11T00:14:08;-3.10;71.90
51215;DHT22;63849;47.546;19.254;2024-01-11T00:16:34;-3.10;71.80
51215;DHT22;63849;47.546;19.254;2024-01-11T00:19:00;-3.30;72.30
51215;DHT22;63849;47.546;19.254;2024-01-11T00:21:26;-3.30;73.00
51215;DHT22;63849;47.546;19.254;2024-01-11T00:23:51;-3.20;72.80
51215;DHT22;63849;47.546;19.254;2024-01-11T00:26:17;-3.10;72.50
51215;DHT22;63849;47.546;19.254;2024-01-11T00:28:43;-3.20;72.00
51215;DHT22;63849;47.546;19.254;2024-01-11T00:31:08;-3.30;72.60
51215;DHT22;63849;47.546;19.254;2024-01-11T00:33:34;-3.10;72.80
51215;DHT22;63849;47.546;19.254;2024-01-11T00:36:00;-3.20;72.60
51215;DHT22;63849;47.546;19.254;2024-01-11T00:38:25;-3.10;72.60
51215;DHT22;63849;47.546;19.254;2024-01-11T00:40:51;-3.10;72.30
51215;DHT22;63849;47.546;19.254;2024-01-11T00:43:17;-3.20;72.10
51215;DHT22;63849;47.546;19.254;2024-01-11T00:45:44;-3.20;72.00
51215;DHT22;63849;47.546;19.254;2024-01-11T00:48:12;-3.10;72.10
51215;DHT22;63849;47.546;19.254;2024-01-11T00:50:37;-3.10;72.50
51215;DHT22;63849;47.546;19.254;2024-01-11T00:53:03;-3.10;73.10
51215;DHT22;63849;47.546;19.254;2024-01-11T00:55:29;-3.10;72.70
51215;DHT22;63849;47.546;19.254;2024-01-11T00:57:55;-3.20;72.90
51215;DHT22;63849;47.546;19.254;2024-01-11T01:00:20;-3.20;73.00
51215;DHT22;63849;47.546;19.254;2024-01-11T01:02:46;-3.20;72.60
51215;DHT22;63849;47.546;19.254;2024-01-11T01:05:12;-3.30;72.20
51215;DHT22;63849;47.546;19.254;2024-01-11T01:07:38;-3.40;72.00
51215;DHT22;63849;47.546;19.254;2024-01-11T01:10:03;-3.40;72.20
51215;DHT22;63849;47.546;19.254;2024-01-11T01:12:29;-3.20;72.30
51215;DHT22;63849;47.546;19.254;2024-01-11T01:14:55;-3.10;71.90
51215;DHT22;63849;47.546;19.254;2024-01-11T01:17:22;-3.10;71.70
51215;DHT22;63849;47.546;19.254;2024-01-11T01:19:47;-3.10;71.60
51215;DHT22;63849;47.546;19.254;2024-01-11T01:22:13;-3.00;71.70
51215;DHT22;63849;47.546;19.254;2024-01-11T01:24:39;-3.00;71.60
51215;DHT22;63849;47.546;19.254;2024-01-11T01:27:05;-3.20;71.60
51215;DHT22;63849;47.546;19.254;2024-01-11T01:29:30;-2.90;71.20
51215;DHT22;63849;47.546;19.254;2024-01-11T01:31:56;-3.10;72.20
51215;DHT22;63849;47.546;19.254;2024-01-11T01:34:21;-3.20;72.30
51215;DHT22;63849;47.546;19.254;2024-01-11T01:36:47;-3.40;72.20
51215;DHT22;63849;47.546;19.254;2024-01-11T01:39:12;-3.50;72.50
51215;DHT22;63849;47.546;19.254;2024-01-11T01:41:38;-3.40;72.70
51215;DHT22;63849;47.546;19.254;2024-01-11T01:44:04;-3.40;72.70
51215;DHT22;63849;47.546;19.254;2024-01-11T01:46:30;-3.40;72.60
51215;DHT22;63849;47.546;19.254;2024-01-11T01:48:57;-3.40;72.30
51215;DHT22;63849;47.546;19.254;2024-01-11T01:51:24;-3.40;72.30
51215;DHT22;63849;47.546;19.254;2024-01-11T01:53:53;-3.30;72.40
51215;DHT22;63849;47.546;19.254;2024-01-11T01:56:20;-3.30;72.40
51215;DHT22;63849;47.546;19.254;2024-01-11T01:58:48;-3.40;72.70
51215;DHT22;63849;47.546;19.254;2024-01-11T02:01:15;-3.40;72.80
51215;DHT22;63849;47.546;19.254;2024-01-11T02:03:41;-3.40;73.10
51215;DHT22;63849;47.546;19.254;2024-01-11T02:06:07;-3.30;73.00
51215;DHT22;63849;47.546;19.254;2024-01-11T02:08:33;-3.40;72.70
51215;DHT22;63849;47.546;19.254;2024-01-11T02:11:00;-3.40;72.50
51215;DHT22;63849;47.546;19.254;2024-01-11T02:13:26;-3.50;72.50
51215;DHT22;63849;47.546;19.254;2024-01-11T02:15:52;-3.40;73.20
51215;DHT22;63849;47.546;19.254;2024-01-11T02:18:17;-3.50;73.20
51215;DHT22;63849;47.546;19.254;2024-01-11T02:20:43;-3.60;73.20
51215;DHT22;63849;47.546;19.254;2024-01-11T02:23:14;-3.50;73.10
51215;DHT22;63849;47.546;19.254;2024-01-11T02:25:40;-3.40;72.60
51215;DHT22;63849;47.546;19.254;2024-01-11T02:28:06;-3.20;72.30
51215;DHT22;63849;47.546;19.254;2024-01-11T02:30:33;-3.20;72.10
51215;DHT22;63849;47.546;19.254;2024-01-11T02:32:59;-3.40;72.10
51215;DHT22;63849;47.546;19.254;2024-01-11T02:35:27;-3.50;72.50
51215;DHT22;63849;47.546;19.254;2024-01-11T02:37:53;-3.60;72.10
51215;DHT22;63849;47.546;19.254;2024-01-11T02:40:19;-3.80;72.50
51215;DHT22;63849;47.546;19.254;2024-01-11T02:42:45;-3.70;72.90
51215;DHT22;63849;47.546;19.254;2024-01-11T02:45:12;-3.60;72.50
51215;DHT22;63849;47.546;19.254;2024-01-11T02:47:38;-3.60;72.50
51215;DHT22;63849;47.546;19.254;2024-01-11T02:50:05;-3.60;72.30
51215;DHT22;63849;47.546;19.254;2024-01-11T02:52:30;-3.60;72.20
51215;DHT22;63849;47.546;19.254;2024-01-11T02:54:56;-3.60;72.40
51215;DHT22;63849;47.546;19.254;2024-01-11T02:57:22;-3.60;72.50
51215;DHT22;63849;47.546;19.254;2024-01-11T02:59:49;-3.50;72.10
51215;DHT22;63849;47.546;19.254;2024-01-11T03:02:14;-3.70;72.60
51215;DHT22;63849;47.546;19.254;2024-01-11T03:04:40;-3.60;71.90
51215;DHT22;63849;47.546;19.254;2024-01-11T03:07:05;-3.70;72.20
51215;DHT22;63849;47.546;19.254;2024-01-11T03:09:31;-3.60;72.20
51215;DHT22;63849;47.546;19.254;2024-01-11T03:11:57;-3.70;72.10
51215;DHT22;63849;47.546;19.254;2024-01-11T03:14:22;-3.60;72.10
51215;DHT22;63849;47.546;19.254;2024-01-11T03:16:48;-3.70;72.30
51215;DHT22;63849;47.546;19.254;2024-01-11T03:19:14;-3.60;71.90
51215;DHT22;63849;47.546;19.254;2024-01-11T03:21:43;-3.70;71.90
51215;DHT22;63849;47.546;19.254;2024-01-11T03:24:09;-3.60;71.60
51215;DHT22;63849;47.546;19.254;2024-01-11T03:26:34;-3.60;72.00
51215;DHT22;63849;47.546;19.254;2024-01-11T03:29:00;-3.60;72.00
51215;DHT22;63849;47.546;19.254;2024-01-11T03:31:26;-3.60;72.00
51215;DHT22;63849;47.546;19.254;2024-01-11T03:33:51;-3.70;72.00
51215;DHT22;63849;47.546;19.254;2024-01-11T03:36:17;-3.70;72.10
51215;DHT22;63849;47.546;19.254;2024-01-11T03:38:42;-3.80;71.60
51215;DHT22;63849;47.546;19.254;2024-01-11T03:41:09;-3.70;72.30
51215;DHT22;63849;47.546;19.254;2024-01-11T03:43:37;-3.60;71.90
51215;DHT22;63849;47.546;19.254;2024-01-11T03:46:03;-3.60;72.10
51215;DHT22;63849;47.546;19.254;2024-01-11T03:48:30;-3.60;72.50
51215;DHT22;63849;47.546;19.254;2024-01-11T03:50:56;-3.70;72.50
51215;DHT22;63849;47.546;19.254;2024-01-11T03:53:21;-3.70;72.40
51215;DHT22;63849;47.546;19.254;2024-01-11T03:55:47;-3.80;72.40
51215;DHT22;63849;47.546;19.254;2024-01-11T03:58:13;-3.70;72.50
51215;DHT22;63849;47.546;19.254;2024-01-11T04:00:39;-3.80;72.40
51215;DHT22;63849;47.546;19.254;2024-01-11T04:03:06;-3.80;72.10
51215;DHT22;63849;47.546;19.254;2024-01-11T04:05:32;-3.70;72.20
51215;DHT22;63849;47.546;19.254;2024-01-11T04:07:57;-3.80;72.10
51215;DHT22;63849;47.546;19.254;2024-01-11T04:10:23;-3.70;72.50
51215;DHT22;63849;47.546;19.254;2024-01-11T04:12:49;-3.60;72.70
51215;DHT22;63849;47.546;19.254;2024-01-11T04:15:14;-3.80;72.70
51215;DHT22;63849;47.546;19.254;2024-01-11T04:17:40;-3.80;73.00
51215;DHT22;63849;47.546;19.254;2024-01-11T04:20:07;-3.70;72.80
51215;DHT22;63849;47.546;19.254;2024-01-11T04:22:34;-3.70;72.90
51215;DHT22;63849;47.546;19.254;2024-01-11T04:25:00;-3.60;73.00
51215;DHT22;63849;47.546;19.254;2024-01-11T04:27:25;-3.70;72.70
51215;DHT22;63849;47.546;19.254;2024-01-11T04:29:51;-3.70;72.70
51215;DHT22;63849;47.546;19.254;2024-01-11T04:32:17;-3.80;73.10
51215;DHT22;63849;47.546;19.254;2024-01-11T04:34:43;-3.70;72.50
51215;DHT22;63849;47.546;19.254;2024-01-11T04:37:09;-3.80;72.20
51215;DHT22;63849;47.546;19.254;2024-01-11T04:39:35;-3.90;72.60
51215;DHT22;63849;47.546;19.254;2024-01-11T04:42:00;-3.90;72.30
51215;DHT22;63849;47.546;19.254;2024-01-11T04:44:26;-3.80;72.40
51215;DHT22;63849;47.546;19.254;2024-01-11T04:46:52;-3.70;72.30
51215;DHT22;63849;47.546;19.254;2024-01-11T04:49:17;-3.90;72.10
51215;DHT22;63849;47.546;19.254;2024-01-11T04:51:43;-3.80;72.00
51215;DHT22;63849;47.546;19.254;2024-01-11T04:54:09;-3.80;72.30
51215;DHT22;63849;47.546;19.254;2024-01-11T04:56:34;-3.90;73.10
51215;DHT22;63849;47.546;19.254;2024-01-11T04:59:00;-3.90;73.10
51215;DHT22;63849;47.546;19.254;2024-01-11T05:01:25;-3.70;73.10
51215;DHT22;63849;47.546;19.254;2024-01-11T05:03:51;-3.80;73.40
51215;DHT22;63849;47.546;19.254;2024-01-11T05:06:17;-3.70;73.60
51215;DHT22;63849;47.546;19.254;2024-01-11T05:08:44;-3.70;73.60
51215;DHT22;63849;47.546;19.254;2024-01-11T05:11:21;-3.70;73.40
51215;DHT22;63849;47.546;19.254;2024-01-11T05:13:47;-3.70;73.70
51215;DHT22;63849;47.546;19.254;2024-01-11T05:18:46;-3.70;73.10
51215;DHT22;63849;47.546;19.254;2024-01-11T05:21:12;-3.60;73.10
51215;DHT22;63849;47.546;19.254;2024-01-11T05:23:38;-3.70;73.00
51215;DHT22;63849;47.546;19.254;2024-01-11T05:26:03;-3.80;72.90
51215;DHT22;63849;47.546;19.254;2024-01-11T05:28:29;-3.70;73.30
51215;DHT22;63849;47.546;19.254;2024-01-11T05:30:54;-3.80;73.10
51215;DHT22;63849;47.546;19.254;2024-01-11T05:33:20;-3.80;73.20
51215;DHT22;63849;47.546;19.254;2024-01-11T05:35:46;-3.70;73.60
51215;DHT22;63849;47.546;19.254;2024-01-11T05:38:11;-3.60;73.70
51215;DHT22;63849;47.546;19.254;2024-01-11T05:40:37;-3.70;72.70
51215;DHT22;63849;47.546;19.254;2024-01-11T05:43:03;-3.70;72.30
51215;DHT22;63849;47.546;19.254;2024-01-11T05:45:29;-3.80;72.50
51215;DHT22;63849;47.546;19.254;2024-01-11T05:47:54;-3.80;72.30
51215;DHT22;63849;47.546;19.254;2024-01-11T05:50:20;-4.00;72.10
51215;DHT22;63849;47.546;19.254;2024-01-11T05:52:46;-3.90;72.10
51215;DHT22;63849;47.546;19.254;2024-01-11T05:55:11;-3.90;72.70
51215;DHT22;63849;47.546;19.254;2024-01-11T05:57:37;-4.10;71.40
51215;DHT22;63849;47.546;19.254;2024-01-11T06:00:04;-4.00;72.00
51215;DHT22;63849;47.546;19.254;2024-01-11T06:02:30;-4.10;72.10
51215;DHT22;63849;47.546;19.254;2024-01-11T06:04:57;-4.10;72.70
51215;DHT22;63849;47.546;19.254;2024-01-11T06:07:22;-4.10;72.90
51215;DHT22;63849;47.546;19.254;2024-01-11T06:09:49;-4.30;72.60
51215;DHT22;63849;47.546;19.254;2024-01-11T06:12:14;-4.10;72.40
51215;DHT22;63849;47.546;19.254;2024-01-11T06:14:40;-4.10;72.50
51215;DHT22;63849;47.546;19.254;2024-01-11T06:17:06;-4.00;72.20
51215;DHT22;63849;47.546;19.254;2024-01-11T06:19:32;-4.10;72.00
51215;DHT22;63849;47.546;19.254;2024-01-11T06:21:58;-4.00;72.20
51215;DHT22;63849;47.546;19.254;2024-01-11T06:24:23;-3.90;72.30
51215;DHT22;63849;47.546;19.254;2024-01-11T06:26:49;-4.00;72.10
51215;DHT22;63849;47.546;19.254;2024-01-11T06:29:15;-4.10;72.10
51215;DHT22;63849;47.546;19.254;2024-01-11T06:31:40;-4.20;72.00
51215;DHT22;63849;47.546;19.254;2024-01-11T06:34:06;-4.10;72.20
51215;DHT22;63849;47.546;19.254;2024-01-11T06:36:32;-4.20;72.10
51215;DHT22;63849;47.546;19.254;2024-01-11T06:38:57;-4.10;72.20
51215;DHT22;63849;47.546;19.254;2024-01-11T06:41:23;-4.20;72.00
51215;DHT22;63849;47.546;19.254;2024-01-11T06:43:49;-4.10;72.00
51215;DHT22;63849;47.546;19.254;2024-01-11T06:46:19;-4.10;72.00
51215;DHT22;63849;47.546;19.254;2024-01-11T06:48:45;-4.20;72.30
51215;DHT22;63849;47.546;19.254;2024-01-11T06:51:15;-4.10;72.40
51215;DHT22;63849;47.546;19.254;2024-01-11T06:53:41;-4.10;72.60
51215;DHT22;63849;47.546;19.254;2024-01-11T06:56:17;-4.00;72.90
51215;DHT22;63849;47.546;19.254;2024-01-11T06:58:44;-3.90;73.10
51215;DHT22;63849;47.546;19.254;2024-01-11T07:01:10;-3.90;73.40
51215;DHT22;63849;47.546;19.254;2024-01-11T07:03:37;-3.80;73.40
51215;DHT22;63849;47.546;19.254;2024-01-11T07:06:03;-3.70;73.00
51215;DHT22;63849;47.546;19.254;2024-01-11T07:08:29;-3.60;73.30
51215;DHT22;63849;47.546;19.254;2024-01-11T07:10:55;-3.60;73.10
51215;DHT22;63849;47.546;19.254;2024-01-11T07:13:22;-3.80;73.20
51215;DHT22;63849;47.546;19.254;2024-01-11T07:15:48;-3.80;73.60
51215;DHT22;63849;47.546;19.254;2024-01-11T07:18:14;-3.60;74.00
51215;DHT22;63849;47.546;19.254;2024-01-11T07:20:40;-3.50;73.50
51215;DHT22;63849;47.546;19.254;2024-01-11T07:23:06;-3.50;74.30
51215;DHT22;63849;47.546;19.254;2024-01-11T07:25:32;-3.50;74.40
51215;DHT22;63849;47.546;19.254;2024-01-11T07:28:00;-3.50;74.40
51215;DHT22;63849;47.546;19.254;2024-01-11T07:30:26;-3.50;75.30
51215;DHT22;63849;47.546;19.254;2024-01-11T07:32:51;-3.30;75.10
51215;DHT22;63849;47.546;19.254;2024-01-11T07:35:17;-3.40;75.50
51215;DHT22;63849;47.546;19.254;2024-01-11T07:37:43;-3.30;75.20
51215;DHT22;63849;47.546;19.254;2024-01-11T07:40:09;-3.30;75.50
51215;DHT22;63849;47.546;19.254;2024-01-11T07:42:39;-3.30;76.10
51215;DHT22;63849;47.546;19.254;2024-01-11T07:45:06;-3.20;76.10
51215;DHT22;63849;47.546;19.254;2024-01-11T07:47:32;-3.10;76.30
51215;DHT22;63849;47.546;19.254;2024-01-11T07:49:58;-3.00;76.30
51215;DHT22;63849;47.546;19.254;2024-01-11T07:52:24;-3.00;76.50
51215;DHT22;63849;47.546;19.254;2024-01-11T07:54:49;-3.00;76.70
51215;DHT22;63849;47.546;19.254;2024-01-11T07:57:15;-2.90;76.90
51215;DHT22;63849;47.546;19.254;2024-01-11T07:59:41;-2.70;76.40
51215;DHT22;63849;47.546;19.254;2024-01-11T08:02:06;-2.70;76.80
51215;DHT22;63849;47.546;19.254;2024-01-11T08:04:33;-2.60;76.70
51215;DHT22;63849;47.546;19.254;2024-01-11T08:06:58;-2.60;76.30
51215;DHT22;63849;47.546;19.254;2024-01-11T08:09:28;-2.70;76.50
51215;DHT22;63849;47.546;19.254;2024-01-11T08:11:54;-2.60;76.60
51215;DHT22;63849;47.546;19.254;2024-01-11T08:14:20;-2.60;76.30
51215;DHT22;63849;47.546;19.254;2024-01-11T08:16:46;-2.50;76.60
51215;DHT22;63849;47.546;19.254;2024-01-11T08:19:12;-2.60;76.50
51215;DHT22;63849;47.546;19.254;2024-01-11T08:21:40;-2.50;76.70
51215;DHT22;63849;47.546;19.254;2024-01-11T08:24:09;-2.40;76.60
51215;DHT22;63849;47.546;19.254;2024-01-11T08:26:34;-2.30;76.60
51215;DHT22;63849;47.546;19.254;2024-01-11T08:29:00;-2.20;76.50
51215;DHT22;63849;47.546;19.254;2024-01-11T08:31:25;-2.30;76.60
51215;DHT22;63849;47.546;19.254;2024-01-11T08:33:52;-2.30;76.80
51215;DHT22;63849;47.546;19.254;2024-01-11T08:36:18;-2.20;76.80
51215;DHT22;63849;47.546;19.254;2024-01-11T08:38:44;-2.20;76.90
51215;DHT22;63849;47.546;19.254;2024-01-11T08:41:09;-2.20;77.00
51215;DHT22;63849;47.546;19.254;2024-01-11T08:43:35;-2.10;77.30
51215;DHT22;63849;47.546;19.254;2024-01-11T08:46:01;-2.10;77.00
51215;DHT22;63849;47.546;19.254;2024-01-11T08:48:27;-2.00;77.20
51215;DHT22;63849;47.546;19.254;2024-01-11T08:50:54;-2.00;76.80
51215;DHT22;63849;47.546;19.254;2024-01-11T08:53:19;-1.90;76.90
51215;DHT22;63849;47.546;19.254;2024-01-11T08:55:45;-1.80;76.90
51215;DHT22;63849;47.546;19.254;2024-01-11T08:58:11;-1.70;76.90
51215;DHT22;63849;47.546;19.254;2024-01-11T09:00:37;-1.70;76.90
51215;DHT22;63849;47.546;19.254;2024-01-11T09:03:03;-1.60;76.50
51215;DHT22;63849;47.546;19.254;2024-01-11T09:05:29;-1.60;76.40
51215;DHT22;63849;47.546;19.254;2024-01-11T09:07:55;-1.40;76.30
51215;DHT22;63849;47.546;19.254;2024-01-11T09:10:21;-1.40;76.10
51215;DHT22;63849;47.546;19.254;2024-01-11T09:12:46;-1.40;76.00
51215;DHT22;63849;47.546;19.254;2024-01-11T09:15:12;-1.40;75.90
51215;DHT22;63849;47.546;19.254;2024-01-11T09:17:38;-1.40;75.80
51215;DHT22;63849;47.546;19.254;2024-01-11T09:20:04;-1.30;76.10
51215;DHT22;63849;47.546;19.254;2024-01-11T09:22:31;-1.20;75.80
51215;DHT22;63849;47.546;19.254;2024-01-11T09:24:56;-1.30;74.90
51215;DHT22;63849;47.546;19.254;2024-01-11T09:27:22;-1.20;74.20
51215;DHT22;63849;47.546;19.254;2024-01-11T09:29:48;-1.10;74.10
51215;DHT22;63849;47.546;19.254;2024-01-11T09:32:13;-1.10;73.30
51215;DHT22;63849;47.546;19.254;2024-01-11T09:34:39;-1.10;72.60
51215;DHT22;63849;47.546;19.254;2024-01-11T09:37:05;-1.10;72.60
51215;DHT22;63849;47.546;19.254;2024-01-11T09:39:30;-1.00;72.10
51215;DHT22;63849;47.546;19.254;2024-01-11T09:42:08;-0.90;71.70
51215;DHT22;63849;47.546;19.254;2024-01-11T09:44:37;-0.80;71.70
51215;DHT22;63849;47.546;19.254;2024-01-11T09:47:07;-0.70;71.20
51215;DHT22;63849;47.546;19.254;2024-01-11T09:49:33;-0.70;70.80
51215;DHT22;63849;47.546;19.254;2024-01-11T09:52:02;-0.60;70.30
51215;DHT22;63849;47.546;19.254;2024-01-11T09:54:28;-0.70;68.90
51215;DHT22;63849;47.546;19.254;2024-01-11T09:56:54;-0.60;68.60
51215;DHT22;63849;47.546;19.254;2024-01-11T09:59:24;-0.60;68.10
51215;DHT22;63849;47.546;19.254;2024-01-11T10:01:50;-0.60;68.90
51215;DHT22;63849;47.546;19.254;2024-01-11T10:04:16;-0.50;68.80
51215;DHT22;63849;47.546;19.254;2024-01-11T10:06:43;-0.50;68.40
51215;DHT22;63849;47.546;19.254;2024-01-11T10:09:09;-0.50;67.40
51215;DHT22;63849;47.546;19.254;2024-01-11T10:11:35;-0.40;67.40
51215;DHT22;63849;47.546;19.254;2024-01-11T10:14:01;-0.30;68.20
51215;DHT22;63849;47.546;19.254;2024-01-11T10:16:28;-0.30;67.00
51215;DHT22;63849;47.546;19.254;2024-01-11T10:18:55;-0.20;66.80
51215;DHT22;63849;47.546;19.254;2024-01-11T10:21:21;-0.20;66.90
51215;DHT22;63849;47.546;19.254;2024-01-11T10:23:47;-0.10;66.90
51215;DHT22;63849;47.546;19.254;2024-01-11T10:26:17;-0.10;65.10
51215;DHT22;63849;47.546;19.254;2024-01-11T10:28:47;-0.10;64.80
51215;DHT22;63849;47.546;19.254;2024-01-11T10:31:13;-0.20;64.80
51215;DHT22;63849;47.546;19.254;2024-01-11T10:33:40;-0.10;64.40
51215;DHT22;63849;47.546;19.254;2024-01-11T10:36:06;-0.10;63.60
51215;DHT22;63849;47.546;19.254;2024-01-11T10:38:36;-0.10;63.60
51215;DHT22;63849;47.546;19.254;2024-01-11T10:41:05;0.00;64.00
51215;DHT22;63849;47.546;19.254;2024-01-11T10:43:32;0.00;62.70
51215;DHT22;63849;47.546;19.254;2024-01-11T10:46:00;0.00;62.20
51215;DHT22;63849;47.546;19.254;2024-01-11T10:48:31;0.00;62.60
51215;DHT22;63849;47.546;19.254;2024-01-11T10:51:01;0.00;62.30
51215;DHT22;63849;47.546;19.254;2024-01-11T10:53:46;0.00;62.30
51215;DHT22;63849;47.546;19.254;2024-01-11T10:56:13;0.00;62.50
51215;DHT22;63849;47.546;19.254;2024-01-11T10:58:41;0.00;62.80
51215;DHT22;63849;47.546;19.254;2024-01-11T11:01:08;0.10;63.10
51215;DHT22;63849;47.546;19.254;2024-01-11T11:03:35;0.20;62.70
51215;DHT22;63849;47.546;19.254;2024-01-11T11:06:01;0.20;62.00
51215;DHT22;63849;47.546;19.254;2024-01-11T11:08:27;0.10;60.70
51215;DHT22;63849;47.546;19.254;2024-01-11T11:10:57;0.20;59.80
51215;DHT22;63849;47.546;19.254;2024-01-11T11:13:24;0.20;59.30
51215;DHT22;63849;47.546;19.254;2024-01-11T11:15:50;0.30;60.00
51215;DHT22;63849;47.546;19.254;2024-01-11T11:18:16;0.20;59.70
51215;DHT22;63849;47.546;19.254;2024-01-11T11:20:42;0.30;60.10
51215;DHT22;63849;47.546;19.254;2024-01-11T11:23:10;0.30;60.20
51215;DHT22;63849;47.546;19.254;2024-01-11T11:25:36;0.30;59.80
51215;DHT22;63849;47.546;19.254;2024-01-11T11:28:03;0.40;59.90
51215;DHT22;63849;47.546;19.254;2024-01-11T11:30:33;0.50;60.50
51215;DHT22;63849;47.546;19.254;2024-01-11T11:33:25;0.50;59.70
51215;DHT22;63849;47.546;19.254;2024-01-11T11:36:00;0.50;59.20
51215;DHT22;63849;47.546;19.254;2024-01-11T11:38:29;0.60;58.70
51215;DHT22;63849;47.546;19.254;2024-01-11T11:41:00;0.60;58.90
51215;DHT22;63849;47.546;19.254;2024-01-11T11:43:27;0.60;58.80
51215;DHT22;63849;47.546;19.254;2024-01-11T11:45:53;0.80;59.00
51215;DHT22;63849;47.546;19.254;2024-01-11T11:53:36;0.80;59.70
51215;DHT22;63849;47.546;19.254;2024-01-11T11:56:02;0.80;59.60
51215;DHT22;63849;47.546;19.254;2024-01-11T11:58:33;0.80;59.20
51215;DHT22;63849;47.546;19.254;2024-01-11T12:01:00;0.80;59.10
51215;DHT22;63849;47.546;19.254;2024-01-11T12:03:36;0.80;59.70
51215;DHT22;63849;47.546;19.254;2024-01-11T12:06:06;0.90;59.00
51215;DHT22;63849;47.546;19.254;2024-01-11T12:08:33;0.80;59.00
51215;DHT22;63849;47.546;19.254;2024-01-11T12:10:59;0.90;57.90
51215;DHT22;63849;47.546;19.254;2024-01-11T12:13:25;0.90;56.80
51215;DHT22;63849;47.546;19.254;2024-01-11T12:15:51;0.90;56.70
51215;DHT22;63849;47.546;19.254;2024-01-11T12:18:17;0.90;56.20
51215;DHT22;63849;47.546;19.254;2024-01-11T12:20:44;0.90;55.40
51215;DHT22;63849;47.546;19.254;2024-01-11T12:23:09;0.90;56.20
51215;DHT22;63849;47.546;19.254;2024-01-11T12:25:36;1.00;56.10
51215;DHT22;63849;47.546;19.254;2024-01-11T12:28:02;1.00;56.30
51215;DHT22;63849;47.546;19.254;2024-01-11T12:30:28;1.10;56.20
51215;DHT22;63849;47.546;19.254;2024-01-11T12:32:56;1.10;57.00
51215;DHT22;63849;47.546;19.254;2024-01-11T12:35:22;1.10;56.50
51215;DHT22;63849;47.546;19.254;2024-01-11T12:37:54;1.20;57.40
51215;DHT22;63849;47.546;19.254;2024-01-11T12:40:22;1.30;56.80
51215;DHT22;63849;47.546;19.254;2024-01-11T12:42:48;1.30;57.40
51215;DHT22;63849;47.546;19.254;2024-01-11T12:45:17;1.40;57.40
51215;DHT22;63849;47.546;19.254;2024-01-11T12:47:43;1.50;56.80
51215;DHT22;63849;47.546;19.254;2024-01-11T12:50:10;1.40;55.70
51215;DHT22;63849;47.546;19.254;2024-01-11T12:52:38;1.40;54.90
51215;DHT22;63849;47.546;19.254;2024-01-11T12:55:04;1.50;55.20
51215;DHT22;63849;47.546;19.254;2024-01-11T12:57:30;1.50;53.80
51215;DHT22;63849;47.546;19.254;2024-01-11T13:00:13;1.50;53.20
51215;DHT22;63849;47.546;19.254;2024-01-11T13:02:42;1.40;54.20
51215;DHT22;63849;47.546;19.254;2024-01-11T13:05:12;1.40;54.20
51215;DHT22;63849;47.546;19.254;2024-01-11T13:07:37;1.30;54.10
51215;DHT22;63849;47.546;19.254;2024-01-11T13:10:04;1.40;55.30
51215;DHT22;63849;47.546;19.254;2024-01-11T13:12:30;1.40;55.10
51215;DHT22;63849;47.546;19.254;2024-01-11T13:14:56;1.40;54.60
51215;DHT22;63849;47.546;19.254;2024-01-11T13:17:22;1.50;54.80
51215;DHT22;63849;47.546;19.254;2024-01-11T13:19:48;1.40;54.70
51215;DHT22;63849;47.546;19.254;2024-01-11T13:22:14;1.40;54.10
51215;DHT22;63849;47.546;19.254;2024-01-11T13:24:39;1.40;55.00
51215;DHT22;63849;47.546;19.254;2024-01-11T13:27:05;1.40;55.10
51215;DHT22;63849;47.546;19.254;2024-01-11T13:29:31;1.40;55.30
51215;DHT22;63849;47.546;19.254;2024-01-11T13:31:57;1.50;55.20
51215;DHT22;63849;47.546;19.254;2024-01-11T13:34:22;1.50;55.20
51215;DHT22;63849;47.546;19.254;2024-01-11T13:36:48;1.40;54.20
51215;DHT22;63849;47.546;19.254;2024-01-11T13:39:14;1.30;54.70
51215;DHT22;63849;47.546;19.254;2024-01-11T13:41:43;1.30;54.70
51215;DHT22;63849;47.546;19.254;2024-01-11T13:44:09;1.30;54.90
51215;DHT22;63849;47.546;19.254;2024-01-11T13:46:35;1.10;55.20
51215;DHT22;63849;47.546;19.254;2024-01-11T13:49:01;1.10;55.60
51215;DHT22;63849;47.546;19.254;2024-01-11T13:51:28;1.00;55.90
51215;DHT22;63849;47.546;19.254;2024-01-11T13:53:54;1.00;56.30
51215;DHT22;63849;47.546;19.254;2024-01-11T13:56:19;0.90;55.90
51215;DHT22;63849;47.546;19.254;2024-01-11T13:58:45;0.90;56.50
51215;DHT22;63849;47.546;19.254;2024-01-11T14:01:11;0.90;56.40
51215;DHT22;63849;47.546;19.254;2024-01-11T14:03:38;0.90;56.80
51215;DHT22;63849;47.546;19.254;2024-01-11T14:06:04;0.80;56.30
51215;DHT22;63849;47.546;19.254;2024-01-11T14:08:30;0.80;56.20
51215;DHT22;63849;47.546;19.254;2024-01-11T14:10:56;0.80;56.10
51215;DHT22;63849;47.546;19.254;2024-01-11T14:13:22;0.80;56.10
51215;DHT22;63849;47.546;19.254;2024-01-11T14:15:48;0.80;56.70
51215;DHT22;63849;47.546;19.254;2024-01-11T14:18:15;0.80;56.50
51215;DHT22;63849;47.546;19.254;2024-01-11T14:20:40;0.80;56.40
51215;DHT22;63849;47.546;19.254;2024-01-11T14:23:06;0.70;55.50
51215;DHT22;63849;47.546;19.254;2024-01-11T14:25:32;0.80;56.00
51215;DHT22;63849;47.546;19.254;2024-01-11T14:27:57;0.80;56.00
51215;DHT22;63849;47.546;19.254;2024-01-11T14:30:23;0.80;55.70
51215;DHT22;63849;47.546;19.254;2024-01-11T14:32:49;0.70;55.40
51215;DHT22;63849;47.546;19.254;2024-01-11T14:35:14;0.70;55.40
51215;DHT22;63849;47.546;19.254;2024-01-11T14:37:40;0.80;55.80
51215;DHT22;63849;47.546;19.254;2024-01-11T14:40:08;0.70;56.00
51215;DHT22;63849;47.546;19.254;2024-01-11T14:42:37;0.60;56.30
51215;DHT22;63849;47.546;19.254;2024-01-11T14:45:03;0.60;56.90
51215;DHT22;63849;47.546;19.254;2024-01-11T14:47:29;0.60;57.20
51215;DHT22;63849;47.546;19.254;2024-01-11T14:49:57;0.60;57.30
51215;DHT22;63849;47.546;19.254;2024-01-11T14:52:23;0.50;57.40
51215;DHT22;63849;47.546;19.254;2024-01-11T14:54:48;0.60;57.50
51215;DHT22;63849;47.546;19.254;2024-01-11T14:57:15;0.50;57.60
51215;DHT22;63849;47.546;19.254;2024-01-11T14:59:41;0.60;57.80
51215;DHT22;63849;47.546;19.254;2024-01-11T15:02:07;0.50;58.10
51215;DHT22;63849;47.546;19.254;2024-01-11T15:04:32;0.50;58.50
51215;DHT22;63849;47.546;19.254;2024-01-11T15:06:58;0.50;58.60
51215;DHT22;63849;47.546;19.254;2024-01-11T15:09:23;0.50;59.20
51215;DHT22;63849;47.546;19.254;2024-01-11T15:11:51;0.60;59.30
51215;DHT22;63849;47.546;19.254;2024-01-11T15:14:17;0.50;59.80
51215;DHT22;63849;47.546;19.254;2024-01-11T15:16:43;0.40;60.00
51215;DHT22;63849;47.546;19.254;2024-01-11T15:19:11;0.40;60.30
51215;DHT22;63849;47.546;19.254;2024-01-11T15:21:38;0.40;60.40
51215;DHT22;63849;47.546;19.254;2024-01-11T15:24:04;0.50;60.80